Time;durP1;ratioP1;P1;durP2;ratioP2;P2;SDS_P1;SDS_P2;PMS_P1;PMS_P2;Temp;Humidity;BMP_temperature;BMP_pressure;BME280_temperature;BME280_humidity;BME280_pressure;Samples;Min_cycle;Max_cycle;Signal;HPM_P1;HPM_P2
2023/04/09 00:00:09;;;;;;;43.08;27.00;;;;;;;11.76;74.46;102468.84;5035740;28;20030;-63
2023/04/09 00:02:34;;;;;;;47.05;28.52;;;;;;;11.69;74.12;102464.19;5035418;28;20083;-63
2023/04/09 00:05:00;;;;;;;35.28;24.48;;;;;;;11.71;74.42;102467.81;5035589;28;20030;-63
2023/04/09 00:07:26;;;;;;;38.50;25.23;;;;;;;11.72;74.67;102466.94;5035157;28;20442;-63
2023/04/09 00:09:52;;;;;;;34.33;23.90;;;;;;;11.74;75.13;102462.63;5035598;28;20116;-63
2023/04/09 00:12:17;;;;;;;43.10;29.33;;;;;;;11.81;74.80;102467.22;5035193;28;20445;-64
2023/04/09 00:14:43;;;;;;;35.50;23.75;;;;;;;11.80;74.36;102462.78;5035108;28;20083;-63
2023/04/09 00:17:08;;;;;;;32.10;23.02;;;;;;;11.81;74.87;102469.00;5035362;28;20025;-64
2023/04/09 00:19:34;;;;;;;27.42;21.02;;;;;;;11.82;74.74;102461.09;5035336;28;20378;-63
2023/04/09 00:21:59;;;;;;;30.13;21.27;;;;;;;11.83;74.66;102459.38;5034969;28;20052;-64
2023/04/09 00:24:25;;;;;;;26.45;19.77;;;;;;;11.77;74.87;102458.28;5035100;28;20392;-64
2023/04/09 00:26:50;;;;;;;28.63;19.60;;;;;;;11.80;74.60;102462.78;5035092;28;20053;-64
2023/04/09 00:29:15;;;;;;;26.60;19.38;;;;;;;11.79;74.76;102458.34;5034948;28;20399;-63
2023/04/09 00:31:41;;;;;;;26.42;19.77;;;;;;;11.75;75.10;102457.34;5035061;28;20057;-63
2023/04/09 00:34:06;;;;;;;26.20;19.15;;;;;;;11.76;75.05;102447.66;5034447;28;20433;-64
2023/04/09 00:36:31;;;;;;;26.13;19.17;;;;;;;11.77;74.98;102455.63;5034651;28;20026;-63
2023/04/09 00:38:57;;;;;;;25.45;19.02;;;;;;;11.73;74.82;102455.50;5034748;28;20072;-64
2023/04/09 00:41:23;;;;;;;25.45;19.10;;;;;;;11.71;75.37;102450.16;5034981;28;20468;-64
2023/04/09 00:43:48;;;;;;;26.83;18.92;;;;;;;11.70;75.26;102448.38;5034436;28;20061;-64
2023/04/09 00:46:14;;;;;;;25.75;18.17;;;;;;;11.74;74.98;102452.91;5035012;28;20048;-63
2023/04/09 00:48:40;;;;;;;26.33;18.83;;;;;;;11.71;75.34;102450.16;5034656;28;20056;-63
2023/04/09 00:51:07;;;;;;;25.88;18.70;;;;;;;11.66;75.34;102451.78;5034368;28;20026;-64
2023/04/09 00:53:33;;;;;;;27.38;19.17;;;;;;;11.70;75.31;102452.78;5034398;28;20526;-64
2023/04/09 00:55:58;;;;;;;26.48;18.55;;;;;;;11.66;75.60;102451.78;5034643;28;20082;-63
2023/04/09 00:58:24;;;;;;;28.65;19.60;;;;;;;11.62;75.56;102443.69;5034322;28;20541;-63
2023/04/09 01:00:49;;;;;;;26.50;19.02;;;;;;;11.56;75.76;102444.34;5034615;28;20113;-63
2023/04/09 01:03:16;;;;;;;26.75;19.05;;;;;;;11.54;75.90;102441.69;5034274;28;20104;-63
2023/04/09 01:06:10;;;;;;;27.52;18.95;;;;;;;11.54;76.50;102446.06;5032933;28;20030;-63
2023/04/09 01:08:49;;;;;;;28.40;19.30;;;;;;;11.55;76.64;102445.22;5034365;28;20054;-63
2023/04/09 01:11:29;;;;;;;26.55;19.08;;;;;;;11.58;76.35;102444.44;5034416;28;20036;-63
2023/04/09 01:14:11;;;;;;;26.65;19.00;;;;;;;11.57;76.19;102438.25;5034140;28;20029;-63
2023/04/09 01:16:41;;;;;;;27.73;20.40;;;;;;;11.49;76.48;102435.34;5034071;28;20037;-64
2023/04/09 01:19:26;;;;;;;26.15;18.75;;;;;;;11.49;76.71;102427.41;5034153;28;20462;-64
2023/04/09 01:21:55;;;;;;;29.38;19.60;;;;;;;11.46;76.76;102429.94;5033983;28;20017;-64
2023/04/09 01:24:41;;;;;;;27.42;19.23;;;;;;;11.53;76.78;102434.59;5033851;28;20036;-63
2023/04/09 01:27:08;;;;;;;27.67;20.25;;;;;;;11.49;76.99;102429.16;5033990;28;20099;-64
2023/04/09 01:29:40;;;;;;;28.55;20.55;;;;;;;11.45;76.89;102432.53;5033770;28;20040;-64
2023/04/09 01:32:07;;;;;;;27.75;19.88;;;;;;;11.47;77.06;102431.72;5034007;28;20029;-64
2023/04/09 01:34:34;;;;;;;28.05;20.20;;;;;;;11.46;77.19;102432.59;5033688;28;20029;-64
2023/04/09 01:37:02;;;;;;;29.05;20.70;;;;;;;11.42;77.48;102430.69;5032644;28;20033;-63
2023/04/09 01:39:28;;;;;;;32.72;20.60;;;;;;;11.40;77.47;102426.22;5033654;28;20022;-64
2023/04/09 01:41:55;;;;;;;30.42;20.67;;;;;;;11.37;77.82;102420.81;5033591;28;20037;-64
2023/04/09 01:44:22;;;;;;;29.50;20.30;;;;;;;11.42;77.53;102425.38;5032489;28;20037;-64
2023/04/09 01:46:48;;;;;;;31.90;21.38;;;;;;;11.40;78.01;102420.91;5033329;28;20463;-64
2023/04/09 01:49:15;;;;;;;30.83;21.00;;;;;;;11.33;78.26;102426.84;5033375;28;20057;-64
2023/04/09 01:51:42;;;;;;;30.40;20.70;;;;;;;11.35;78.02;102417.19;5033269;28;20082;-64
2023/04/09 01:54:07;;;;;;;30.38;21.25;;;;;;;11.35;78.26;102430.44;5033337;28;20049;-64
2023/04/09 01:56:43;;;;;;;32.97;22.02;;;;;;;11.35;78.15;102423.41;5033335;28;20068;-64
2023/04/09 01:59:09;;;;;;;33.30;22.52;;;;;;;11.35;78.27;102423.41;5033244;28;20033;-64
2023/04/09 02:01:42;;;;;;;30.42;21.15;;;;;;;11.35;78.31;102425.13;5033494;28;20030;-64
2023/04/09 02:04:23;;;;;;;29.90;21.83;;;;;;;11.30;78.70;102422.34;5033163;28;20065;-65
2023/04/09 02:07:05;;;;;;;30.90;21.23;;;;;;;11.27;78.66;102423.16;5032582;28;20552;-64
2023/04/09 02:09:35;;;;;;;36.97;21.77;;;;;;;11.23;78.91;102420.34;5033151;28;20514;-64
2023/04/09 02:12:04;;;;;;;33.05;22.30;;;;;;;11.23;78.66;102429.19;5033093;28;20592;-64
2023/04/09 02:14:32;;;;;;;31.92;21.17;;;;;;;11.27;78.98;102428.44;5033185;28;20018;-64
2023/04/09 02:16:58;;;;;;;33.15;21.08;;;;;;;11.33;78.61;102427.75;5033339;28;20383;-63
2023/04/09 02:19:23;;;;;;;28.92;20.48;;;;;;;11.36;78.68;102411.06;5032977;28;20108;-64
2023/04/09 02:21:49;;;;;;;32.13;21.45;;;;;;;11.35;78.85;102415.47;5032906;28;20507;-63
2023/04/09 02:24:14;;;;;;;30.52;21.60;;;;;;;11.35;78.90;102412.81;5033183;28;20053;-63
2023/04/09 02:26:40;;;;;;;31.67;21.30;;;;;;;11.31;78.96;102423.25;5032905;28;20490;-64
2023/04/09 02:29:05;;;;;;;36.55;23.05;;;;;;;11.25;79.38;102413.34;5032814;28;20030;-64
2023/04/09 02:31:30;;;;;;;32.17;21.42;;;;;;;11.26;79.29;102420.44;5032882;28;20069;-64
2023/04/09 02:33:56;;;;;;;34.83;22.20;;;;;;;11.28;79.42;102417.00;5033076;28;20061;-64
2023/04/09 02:36:22;;;;;;;34.72;22.10;;;;;;;11.32;79.35;102409.19;5032967;28;20025;-64
2023/04/09 02:38:48;;;;;;;32.85;21.65;;;;;;;11.34;78.92;102404.81;5032951;28;20029;-63
2023/04/09 02:41:13;;;;;;;34.28;21.00;;;;;;;11.34;79.15;102408.34;5032686;28;20120;-63
2023/04/09 02:43:38;;;;;;;33.58;22.30;;;;;;;11.32;79.59;102410.06;5032834;28;20030;-63
2023/04/09 02:46:04;;;;;;;32.97;21.30;;;;;;;11.29;79.58;102408.22;5014966;28;20121;-63
2023/04/09 02:48:29;;;;;;;33.17;21.63;;;;;;;11.25;79.18;102406.31;5032853;28;20030;-63
2023/04/09 02:50:55;;;;;;;33.83;22.95;;;;;;;11.25;79.07;102402.78;5032493;28;20029;-63
2023/04/09 02:53:21;;;;;;;35.00;23.50;;;;;;;11.17;79.68;102410.44;5032641;28;20064;-64
2023/04/09 02:55:46;;;;;;;33.50;22.77;;;;;;;11.11;79.86;102404.06;5033427;28;20057;-64
2023/04/09 02:58:12;;;;;;;37.00;23.92;;;;;;;11.07;79.87;102405.72;5036856;28;20048;-63
2023/04/09 03:00:37;;;;;;;35.28;23.98;;;;;;;11.07;80.10;102400.41;5036747;28;20057;-64
2023/04/09 03:03:03;;;;;;;37.20;24.13;;;;;;;11.03;80.12;102407.34;5036835;28;20042;-64
2023/04/09 03:05:28;;;;;;;35.15;23.10;;;;;;;11.08;80.26;102404.84;5036669;28;20410;-63
2023/04/09 03:07:54;;;;;;;39.15;23.83;;;;;;;11.11;80.28;102398.78;5035703;28;20612;-63
2023/04/09 03:10:19;;;;;;;37.90;23.88;;;;;;;11.07;80.18;102397.78;5036314;28;20038;-63
2023/04/09 03:12:46;;;;;;;37.25;24.38;;;;;;;11.03;80.68;102395.88;5036134;28;20391;-63
2023/04/09 03:15:12;;;;;;;37.17;24.45;;;;;;;11.01;80.50;102394.94;5036406;28;20052;-64
2023/04/09 03:17:38;;;;;;;40.35;25.58;;;;;;;10.99;80.30;102389.56;5036497;28;20479;-63
2023/04/09 03:20:04;;;;;;;38.65;25.73;;;;;;;10.98;80.78;102393.06;5036047;28;20051;-63
2023/04/09 03:22:34;;;;;;;39.05;25.17;;;;;;;10.99;80.62;102392.22;5035918;28;20084;-63
2023/04/09 03:24:59;;;;;;;39.28;25.33;;;;;;;11.03;80.77;102391.47;5036378;28;20112;-63
2023/04/09 03:27:25;;;;;;;40.42;25.40;;;;;;;11.05;80.29;102391.53;5035951;28;20108;-63
2023/04/09 03:29:55;;;;;;;44.17;25.67;;;;;;;11.07;80.39;102389.84;5036069;28;20034;-63
2023/04/09 03:32:20;;;;;;;40.80;26.05;;;;;;;10.98;80.55;102382.50;5036019;28;20112;-63
2023/04/09 03:34:45;;;;;;;42.28;25.48;;;;;;;11.00;80.16;102387.81;5035961;28;20113;-63
2023/04/09 03:37:11;;;;;;;44.30;27.25;;;;;;;10.94;80.60;102385.88;5035834;28;20079;-63
2023/04/09 03:39:36;;;;;;;46.20;27.42;;;;;;;10.89;80.53;102376.00;5035890;28;20030;-63
2023/04/09 03:42:01;;;;;;;45.35;27.02;;;;;;;10.86;80.68;102376.78;5035779;28;20080;-64
2023/04/09 03:44:27;;;;;;;46.78;28.17;;;;;;;10.87;80.64;102378.56;5035667;28;20025;-63
2023/04/09 03:46:52;;;;;;;46.78;27.88;;;;;;;10.84;80.53;102373.19;5035660;28;20022;-63
2023/04/09 03:49:18;;;;;;;44.30;27.27;;;;;;;10.81;80.72;102375.72;5035604;28;20130;-63
2023/04/09 03:51:43;;;;;;;41.50;26.70;;;;;;;10.73;80.92;102379.84;5035514;28;20025;-63
2023/04/09 03:54:09;;;;;;;43.75;26.85;;;;;;;10.71;80.71;102371.88;5035816;28;20056;-63
2023/04/09 03:56:34;;;;;;;42.38;25.77;;;;;;;10.64;79.97;102382.19;5035745;28;20098;-63
2023/04/09 03:58:59;;;;;;;41.70;25.67;;;;;;;10.57;80.13;102377.50;5035526;28;20030;-63
2023/04/09 04:01:25;;;;;;;43.67;25.13;;;;;;;10.51;80.09;102380.84;5034203;28;20029;-63
2023/04/09 04:03:50;;;;;;;42.15;25.30;;;;;;;10.47;79.94;102371.00;5035367;28;20132;-64
2023/04/09 04:06:16;;;;;;;42.05;25.02;;;;;;;10.43;80.01;102379.66;5034049;28;20038;-64
2023/04/09 04:08:41;;;;;;;40.92;25.05;;;;;;;10.40;80.29;102379.56;5032829;28;20490;-64
2023/04/09 04:11:06;;;;;;;39.60;23.98;;;;;;;10.35;79.83;102382.03;5035192;28;20022;-63
2023/04/09 04:13:32;;;;;;;40.00;23.75;;;;;;;10.34;79.71;102379.34;5035034;28;20108;-63
2023/04/09 04:15:57;;;;;;;40.28;24.88;;;;;;;10.35;79.73;102381.13;5035156;28;20363;-63
2023/04/09 04:18:22;;;;;;;39.10;23.08;;;;;;;10.33;79.32;102383.72;5035357;28;20108;-63
2023/04/09 04:20:48;;;;;;;38.50;23.55;;;;;;;10.30;79.23;102388.91;5035010;28;20108;-64
2023/04/09 04:23:13;;;;;;;36.33;23.10;;;;;;;10.31;79.83;102389.78;5035397;28;20036;-64
2023/04/09 04:25:42;;;;;;;42.25;24.65;;;;;;;10.25;79.57;102380.81;5035295;28;20029;-63
2023/04/09 04:28:07;;;;;;;38.88;23.27;;;;;;;10.24;79.60;102380.72;5035209;28;20029;-63
2023/04/09 04:30:33;;;;;;;36.25;22.73;;;;;;;10.20;79.26;102386.75;5034883;28;20457;-63
2023/04/09 04:32:58;;;;;;;38.33;22.50;;;;;;;10.14;78.85;102378.56;5034866;28;20021;-63
2023/04/09 04:35:24;;;;;;;36.17;22.23;;;;;;;10.13;79.30;102376.78;5035068;28;20428;-64
2023/04/09 04:37:52;;;;;;;34.67;21.63;;;;;;;10.11;78.96;102383.75;5034887;28;20363;-63
2023/04/09 04:40:18;;;;;;;39.63;22.67;;;;;;;10.03;79.09;102379.09;5034776;28;20025;-63
2023/04/09 04:42:43;;;;;;;39.22;22.83;;;;;;;10.03;79.37;102372.91;5033531;28;20034;-64
2023/04/09 04:45:09;;;;;;;33.22;20.45;;;;;;;10.02;79.33;102379.94;5034799;28;20033;-63
2023/04/09 04:47:35;;;;;;;40.22;23.10;;;;;;;9.93;79.47;102379.56;5034488;28;20049;-63
2023/04/09 04:50:00;;;;;;;37.47;22.70;;;;;;;9.89;79.34;102379.38;5034525;28;20104;-63
2023/04/09 04:52:26;;;;;;;37.95;22.33;;;;;;;9.84;79.13;102387.13;5034628;28;20100;-63
2023/04/09 04:54:51;;;;;;;38.83;21.98;;;;;;;9.75;79.22;102389.41;5034702;28;20356;-63
2023/04/09 04:57:17;;;;;;;41.53;22.05;;;;;;;9.69;79.43;102387.44;5034343;28;20034;-64
2023/04/09 04:59:42;;;;;;;36.90;22.40;;;;;;;9.62;79.62;102389.78;5034606;28;20055;-63
2023/04/09 05:02:08;;;;;;;35.53;21.73;;;;;;;9.62;79.65;102387.16;5034214;28;20033;-63
2023/04/09 05:04:33;;;;;;;39.58;21.88;;;;;;;9.66;79.80;102389.06;5034528;28;20037;-63
2023/04/09 05:06:59;;;;;;;40.88;22.02;;;;;;;9.64;79.36;102396.94;5034042;28;20463;-63
2023/04/09 05:09:25;;;;;;;42.05;23.00;;;;;;;9.63;79.69;102388.94;5034001;28;20410;-63
2023/04/09 05:11:50;;;;;;;36.97;22.13;;;;;;;9.62;79.57;102390.69;5034364;28;20546;-63
2023/04/09 05:14:16;;;;;;;36.15;21.52;;;;;;;9.66;79.26;102391.69;5034025;28;20029;-63
2023/04/09 05:16:41;;;;;;;38.85;22.70;;;;;;;9.65;79.09;102384.63;5034295;28;20493;-63
2023/04/09 05:19:07;;;;;;;40.80;22.35;;;;;;;9.64;79.28;102386.38;5034059;28;20471;-63
2023/04/09 05:21:32;;;;;;;34.42;21.02;;;;;;;9.62;79.27;102382.75;5033845;28;20103;-63
2023/04/09 05:23:57;;;;;;;35.97;21.75;;;;;;;9.58;79.18;102378.19;5033871;28;20034;-63
2023/04/09 05:26:23;;;;;;;35.83;21.95;;;;;;;9.60;79.14;102384.47;5033955;28;20060;-63
2023/04/09 05:28:49;;;;;;;35.70;21.02;;;;;;;9.59;79.32;102382.63;5034055;28;20026;-63
2023/04/09 05:31:14;;;;;;;37.95;22.15;;;;;;;9.60;79.47;102388.84;5032654;28;20029;-63
2023/04/09 05:33:40;;;;;;;37.95;22.17;;;;;;;9.56;78.95;102386.91;5033758;28;20112;-63
2023/04/09 05:36:06;;;;;;;36.45;21.30;;;;;;;9.58;78.99;102383.47;5033844;28;20021;-63
2023/04/09 05:38:31;;;;;;;38.05;21.70;;;;;;;9.61;78.94;102388.88;5033745;28;20437;-63
2023/04/09 05:40:57;;;;;;;36.45;21.85;;;;;;;9.64;79.00;102388.13;5033864;28;20022;-63
2023/04/09 05:43:22;;;;;;;36.28;21.35;;;;;;;9.67;78.60;102390.84;5033387;28;20025;-63
2023/04/09 05:45:48;;;;;;;73.25;45.13;;;;;;;9.69;78.73;102391.84;5033440;28;20032;-63
2023/04/09 05:48:13;;;;;;;39.58;23.88;;;;;;;9.73;78.29;102392.00;5033417;28;20120;-63
2023/04/09 05:50:39;;;;;;;36.03;22.25;;;;;;;9.72;78.56;102382.31;5033585;28;20068;-63
2023/04/09 05:53:04;;;;;;;34.28;21.15;;;;;;;9.72;78.22;102382.31;5033421;28;20108;-64
2023/04/09 05:55:31;;;;;;;38.35;22.02;;;;;;;9.76;78.07;102386.88;5033406;28;20033;-63
2023/04/09 05:57:56;;;;;;;38.47;22.35;;;;;;;9.76;78.21;102388.56;5033359;28;20026;-63
2023/04/09 06:00:22;;;;;;;34.55;20.40;;;;;;;9.85;78.02;102391.59;5033235;28;20021;-63
2023/04/09 06:02:47;;;;;;;35.17;20.85;;;;;;;9.91;77.81;102381.25;5033339;28;20033;-63
2023/04/09 06:05:13;;;;;;;37.55;20.70;;;;;;;10.01;77.21;102391.31;5033189;28;20383;-63
2023/04/09 06:07:38;;;;;;;35.22;21.75;;;;;;;10.09;76.77;102401.28;5033055;28;20143;-64
2023/04/09 06:10:04;;;;;;;37.67;22.23;;;;;;;10.07;76.68;102395.94;5033207;28;20116;-63
2023/04/09 06:12:30;;;;;;;35.72;20.85;;;;;;;10.13;76.93;102398.81;5033270;28;20121;-63
2023/04/09 06:14:55;;;;;;;34.47;20.50;;;;;;;10.25;77.30;102399.31;5031722;28;20036;-63
2023/04/09 06:17:21;;;;;;;37.20;21.73;;;;;;;10.33;76.28;102398.69;5031819;28;20109;-63
2023/04/09 06:19:46;;;;;;;34.80;21.02;;;;;;;10.39;76.10;102398.91;5031808;28;20061;-63
2023/04/09 06:22:11;;;;;;;33.85;20.65;;;;;;;10.40;75.28;102393.66;5032883;28;20025;-63
2023/04/09 06:24:37;;;;;;;36.45;21.55;;;;;;;10.38;75.29;102402.41;5032916;28;20079;-63
2023/04/09 06:27:02;;;;;;;36.08;20.92;;;;;;;10.47;76.31;102397.44;5032875;28;20025;-63
2023/04/09 06:29:28;;;;;;;34.33;21.50;;;;;;;10.50;75.90;102409.03;5032958;28;20091;-63
2023/04/09 06:31:53;;;;;;;36.10;21.80;;;;;;;10.58;75.21;102411.03;5032643;28;20471;-63
2023/04/09 06:34:19;;;;;;;36.65;21.80;;;;;;;10.65;75.04;102403.38;5033092;28;20033;-63
2023/04/09 06:36:44;;;;;;;33.80;21.08;;;;;;;10.73;75.02;102408.94;5032779;28;20110;-63
2023/04/09 06:39:10;;;;;;;37.33;21.73;;;;;;;10.76;73.79;102406.41;5033057;28;20033;-63
2023/04/09 06:41:35;;;;;;;37.00;22.27;;;;;;;10.85;74.31;102404.09;5033003;28;20065;-63
2023/04/09 06:44:01;;;;;;;34.60;21.45;;;;;;;10.85;73.58;102412.00;5032515;28;20022;-63
2023/04/09 06:46:26;;;;;;;36.83;22.77;;;;;;;10.94;73.30;102416.72;5031462;28;20135;-64
2023/04/09 06:48:52;;;;;;;36.50;22.23;;;;;;;11.07;73.66;102416.28;5032766;28;20521;-63
2023/04/09 06:51:18;;;;;;;38.65;22.73;;;;;;;11.20;73.16;102418.50;5032538;28;20018;-63
2023/04/09 06:53:43;;;;;;;33.95;21.42;;;;;;;11.33;72.63;102414.50;5032970;28;20040;-63
2023/04/09 06:56:09;;;;;;;33.58;20.98;;;;;;;11.50;72.06;102417.69;5031268;28;20433;-63
2023/04/09 06:58:35;;;;;;;34.85;21.48;;;;;;;11.68;71.84;102415.63;5032572;28;20113;-63
2023/04/09 07:01:00;;;;;;;37.15;22.52;;;;;;;11.85;70.59;102417.94;5032818;28;20418;-64
2023/04/09 07:03:26;;;;;;;39.53;22.20;;;;;;;12.02;70.80;102416.69;5032537;28;20383;-64
2023/04/09 07:05:53;;;;;;;34.38;21.73;;;;;;;12.13;69.55;102420.59;5032613;28;20056;-63
2023/04/09 07:08:18;;;;;;;38.92;22.42;;;;;;;12.23;68.78;102421.75;5032142;28;20104;-63
2023/04/09 07:10:46;;;;;;;35.78;23.23;;;;;;;12.30;69.40;102418.44;5032473;28;20053;-63
2023/04/09 07:13:11;;;;;;;35.47;22.83;;;;;;;12.34;68.26;102416.75;5032305;28;20037;-64
2023/04/09 07:15:37;;;;;;;41.40;24.02;;;;;;;12.25;68.87;102405.03;5032503;28;20060;-64
2023/04/09 07:18:02;;;;;;;33.67;22.67;;;;;;;12.39;68.11;102415.13;5032784;28;20030;-65
2023/04/09 07:20:28;;;;;;;36.22;22.48;;;;;;;12.49;68.37;102411.88;5032614;28;20033;-63
2023/04/09 07:22:53;;;;;;;35.85;23.63;;;;;;;12.71;68.56;102418.66;5032220;28;20410;-63
2023/04/09 07:25:18;;;;;;;36.17;23.02;;;;;;;12.87;67.27;102425.28;5032373;28;20028;-64
2023/04/09 07:27:44;;;;;;;38.13;23.95;;;;;;;13.06;67.08;102422.28;5032614;28;20379;-63
2023/04/09 07:30:10;;;;;;;36.38;23.65;;;;;;;13.21;66.69;102425.31;5032624;28;20034;-64
2023/04/09 07:32:36;;;;;;;37.00;23.58;;;;;;;13.33;66.09;102421.22;5032465;28;20598;-63
2023/04/09 07:35:03;;;;;;;38.90;24.13;;;;;;;13.44;65.54;102420.59;5032640;28;20030;-63
2023/04/09 07:37:29;;;;;;;38.53;24.00;;;;;;;13.48;65.33;102421.56;5032274;28;20025;-63
2023/04/09 07:39:55;;;;;;;37.58;24.30;;;;;;;13.61;64.75;102420.09;5032237;28;20025;-63
2023/04/09 07:42:21;;;;;;;37.67;25.02;;;;;;;13.48;64.82;102425.13;5032577;28;20034;-63
2023/04/09 07:44:47;;;;;;;34.33;23.50;;;;;;;13.47;66.27;102427.75;5034412;28;20068;-63
2023/04/09 07:47:12;;;;;;;38.17;23.98;;;;;;;13.48;65.16;102424.22;5035630;28;20029;-62
2023/04/09 07:49:38;;;;;;;34.95;23.55;;;;;;;13.42;65.67;102422.31;5035566;28;20040;-62
2023/04/09 07:52:04;;;;;;;36.13;24.33;;;;;;;13.29;65.09;102414.91;5035798;28;20037;-62
2023/04/09 07:54:30;;;;;;;37.20;24.38;;;;;;;13.16;65.74;102420.75;5035690;28;20029;-62
2023/04/09 07:56:56;;;;;;;34.78;23.50;;;;;;;12.97;66.17;102422.91;5034649;28;20092;-62
2023/04/09 07:59:22;;;;;;;37.80;24.33;;;;;;;12.85;66.53;102419.97;5035392;28;20030;-62
2023/04/09 08:01:48;;;;;;;38.00;24.13;;;;;;;12.86;66.66;102423.50;5034296;28;20032;-62
2023/04/09 08:04:13;;;;;;;41.17;24.50;;;;;;;12.85;67.06;102422.63;5035431;28;20368;-62
2023/04/09 08:06:39;;;;;;;36.05;25.02;;;;;;;12.92;66.69;102428.97;5035514;28;20416;-62
2023/04/09 08:09:05;;;;;;;38.20;24.95;;;;;;;12.83;66.63;102426.97;5035048;28;20525;-62
2023/04/09 08:11:30;;;;;;;37.85;24.38;;;;;;;13.10;66.59;102421.47;5035549;28;20494;-63
2023/04/09 08:13:56;;;;;;;39.15;25.13;;;;;;;13.51;65.14;102430.50;5034931;28;20478;-63
2023/04/09 08:16:23;;;;;;;37.78;24.52;;;;;;;13.87;63.62;102424.25;5035129;28;20108;-63
2023/04/09 08:18:52;;;;;;;37.40;23.95;;;;;;;14.14;63.16;102428.41;5035393;28;20079;-63
2023/04/09 08:21:18;;;;;;;39.17;25.85;;;;;;;14.42;62.73;102425.41;5035190;28;20037;-63
2023/04/09 08:23:43;;;;;;;36.13;25.85;;;;;;;14.65;62.82;102420.63;5035097;28;20107;-63
2023/04/09 08:26:10;;;;;;;38.70;25.65;;;;;;;14.70;61.20;102418.94;5033760;28;20117;-62
2023/04/09 08:28:36;;;;;;;39.10;25.38;;;;;;;14.51;62.99;102420.31;5034908;28;20048;-63
2023/04/09 08:31:01;;;;;;;41.25;27.55;;;;;;;14.17;62.73;102425.78;5034822;28;20555;-62
2023/04/09 08:33:27;;;;;;;41.88;26.48;;;;;;;13.90;63.67;102426.97;5035093;28;20025;-63
2023/04/09 08:35:52;;;;;;;38.63;26.23;;;;;;;13.63;64.87;102421.94;5033527;28;20052;-62
2023/04/09 08:38:18;;;;;;;40.83;26.00;;;;;;;13.66;65.50;102422.03;5034584;28;20040;-62
2023/04/09 08:40:44;;;;;;;35.70;25.63;;;;;;;13.90;65.50;102421.66;5034952;28;20048;-63
2023/04/09 08:43:14;;;;;;;37.97;26.25;;;;;;;13.85;64.95;102425.09;5034753;28;20080;-62
2023/04/09 08:45:41;;;;;;;43.17;27.92;;;;;;;13.91;65.17;102418.13;5034606;28;20548;-63
2023/04/09 08:48:09;;;;;;;43.95;27.42;;;;;;;14.10;65.29;102419.44;5034723;28;20124;-63
2023/04/09 08:50:35;;;;;;;40.20;27.80;;;;;;;14.37;65.42;102423.53;5034755;28;20029;-63
2023/04/09 08:53:02;;;;;;;37.85;26.27;;;;;;;14.95;63.38;102409.63;5034487;28;20036;-63
2023/04/09 08:55:28;;;;;;;39.13;26.13;;;;;;;15.44;63.14;102413.09;5034186;28;20472;-63
2023/04/09 08:57:53;;;;;;;39.10;26.45;;;;;;;15.84;60.30;102407.50;5034579;28;20121;-63
2023/04/09 09:00:19;;;;;;;37.05;26.45;;;;;;;16.10;59.34;102406.13;5034373;28;20064;-63
2023/04/09 09:03:07;;;;;;;41.08;26.98;;;;;;;16.29;59.50;102407.22;5034352;28;20029;-63
2023/04/09 09:05:42;;;;;;;36.47;25.67;;;;;;;16.46;58.27;102408.31;5030643;28;20037;-63
2023/04/09 09:08:10;;;;;;;40.20;27.02;;;;;;;16.53;56.69;102409.28;5034225;28;20356;-63
2023/04/09 09:10:43;;;;;;;39.05;27.63;;;;;;;16.52;57.33;102408.38;5034219;28;20097;-62
2023/04/09 09:13:22;;;;;;;35.88;26.45;;;;;;;16.49;57.33;102400.34;5034283;28;20109;-63
2023/04/09 09:15:54;;;;;;;40.33;27.30;;;;;;;16.31;56.33;102405.47;5032752;28;20033;-63
2023/04/09 09:18:20;;;;;;;37.85;26.45;;;;;;;16.24;59.37;102401.84;5034125;28;20120;-63
2023/04/09 09:20:45;;;;;;;39.90;26.98;;;;;;;16.62;57.80;102408.50;5033971;28;20037;-63
2023/04/09 09:23:11;;;;;;;40.20;27.83;;;;;;;17.01;56.59;102395.56;5034104;28;20025;-63
2023/04/09 09:25:38;;;;;;;37.22;26.85;;;;;;;17.26;55.82;102401.13;5033908;28;20029;-63
2023/04/09 09:28:09;;;;;;;36.20;27.00;;;;;;;17.53;55.13;102403.09;5033680;28;20053;-64
2023/04/09 09:30:36;;;;;;;36.53;26.33;;;;;;;17.46;54.94;102398.59;5033979;28;20033;-63
2023/04/09 09:33:09;;;;;;;36.10;26.70;;;;;;;17.75;55.62;102397.03;5034013;28;20034;-63
2023/04/09 09:35:52;;;;;;;37.40;26.95;;;;;;;18.07;54.46;102400.75;5033882;28;20037;-62
2023/04/09 09:38:18;;;;;;;35.25;25.90;;;;;;;18.13;52.53;102392.78;5033833;28;20021;-63
2023/04/09 09:40:44;;;;;;;34.53;25.55;;;;;;;18.31;52.45;102391.94;5033651;28;20112;-62
2023/04/09 09:43:10;;;;;;;32.28;23.83;;;;;;;18.55;51.30;102386.69;5033296;28;20375;-63
2023/04/09 09:45:37;;;;;;;32.17;23.88;;;;;;;18.68;50.39;102385.81;5033396;28;20622;-63
2023/04/09 09:48:04;;;;;;;32.55;25.23;;;;;;;18.63;50.66;102384.00;5033584;28;20091;-63
2023/04/09 09:50:31;;;;;;;30.95;24.60;;;;;;;18.72;49.82;102384.06;5033412;28;20033;-63
2023/04/09 09:53:07;;;;;;;34.92;24.58;;;;;;;18.63;50.49;102370.59;5032212;28;20108;-63
2023/04/09 09:55:36;;;;;;;31.92;24.05;;;;;;;18.34;50.43;102381.25;5033631;28;20395;-63
2023/04/09 09:58:15;;;;;;;34.80;24.77;;;;;;;18.08;50.52;102367.78;5033369;28;20095;-63
2023/04/09 10:00:42;;;;;;;32.97;24.67;;;;;;;17.82;51.83;102371.25;5033165;28;20108;-63
2023/04/09 10:03:20;;;;;;;30.67;22.70;;;;;;;17.87;52.38;102371.25;5033100;28;20030;-63
2023/04/09 10:05:48;;;;;;;32.03;23.50;;;;;;;18.10;52.56;102366.88;5032427;28;20029;-63
2023/04/09 10:08:14;;;;;;;32.63;23.15;;;;;;;18.27;50.50;102362.50;5031518;28;20046;-63
2023/04/09 10:10:41;;;;;;;31.52;23.15;;;;;;;18.30;49.71;102358.94;5032137;28;20033;-63
2023/04/09 10:13:10;;;;;;;29.45;22.02;;;;;;;18.64;49.38;102359.91;5032927;28;20064;-63
2023/04/09 10:15:36;;;;;;;33.63;27.05;;;;;;;18.82;48.12;102350.16;5032956;28;20017;-63
2023/04/09 10:18:02;;;;;;;27.88;21.15;;;;;;;19.05;46.98;102348.34;5032975;28;20036;-63
2023/04/09 10:20:34;;;;;;;54.13;41.53;;;;;;;19.10;47.62;102351.03;5032494;28;20037;-64
2023/04/09 10:23:05;;;;;;;27.88;21.40;;;;;;;19.34;47.11;102358.16;5032845;28;20021;-63
2023/04/09 10:25:31;;;;;;;28.35;23.13;;;;;;;19.14;47.83;102344.78;5033346;28;20100;-63
2023/04/09 10:28:01;;;;;;;26.05;20.25;;;;;;;18.88;47.95;102345.66;5032826;28;20442;-63
2023/04/09 10:30:36;;;;;;;30.52;21.05;;;;;;;18.58;48.60;102340.25;5033034;28;20029;-63
2023/04/09 10:33:13;;;;;;;27.60;19.40;;;;;;;18.09;47.98;102343.72;5032816;28;20032;-63
2023/04/09 10:35:39;;;;;;;30.25;22.58;;;;;;;17.87;49.28;102341.84;5033090;28;20486;-63
2023/04/09 10:38:09;;;;;;;32.05;24.48;;;;;;;18.14;50.66;102330.34;5032592;28;20572;-63
2023/04/09 10:40:46;;;;;;;27.83;21.27;;;;;;;18.47;50.80;102329.53;5033067;28;20025;-63
2023/04/09 10:43:12;;;;;;;25.05;19.85;;;;;;;18.42;48.33;102328.66;5032995;28;20053;-64
2023/04/09 10:45:41;;;;;;;24.17;18.08;;;;;;;18.18;47.75;102329.47;5032714;28;20025;-64
2023/04/09 10:48:15;;;;;;;25.70;18.83;;;;;;;17.96;49.16;102328.50;5032651;28;20030;-63
2023/04/09 10:50:43;;;;;;;28.10;20.67;;;;;;;17.90;49.78;102325.78;5032535;28;20064;-64
2023/04/09 10:53:21;;;;;;;23.70;18.77;;;;;;;17.77;50.00;102323.09;5032854;28;20037;-63
2023/04/09 10:55:49;;;;;;;24.05;18.85;;;;;;;17.53;49.38;102326.47;5032604;28;20037;-64
2023/04/09 10:58:15;;;;;;;27.80;20.15;;;;;;;17.33;49.65;102319.22;5032505;28;20033;-64
2023/04/09 11:00:43;;;;;;;25.67;19.63;;;;;;;17.32;49.77;102312.09;5032602;28;20029;-63
2023/04/09 11:03:20;;;;;;;25.38;19.83;;;;;;;17.26;51.03;102310.28;5032562;28;20029;-64
2023/04/09 11:06:10;;;;;;;24.10;18.83;;;;;;;17.42;50.16;102308.59;5032807;28;20037;-64
2023/04/09 11:08:37;;;;;;;24.08;17.95;;;;;;;17.52;49.00;102307.78;5032342;28;20053;-63